createdAt,value
2022-09-29T00:01:11.317Z,12.90
2022-09-29T00:03:38.675Z,12.84
2022-09-29T00:06:14.958Z,12.83
2022-09-29T00:08:43.570Z,12.72
2022-09-29T00:11:15.513Z,12.67
2022-09-29T00:13:43.369Z,12.66
2022-09-29T00:16:11.947Z,12.57
2022-09-29T00:18:40.094Z,12.51
2022-09-29T00:21:14.962Z,12.49
2022-09-29T00:23:42.853Z,12.51
2022-09-29T00:26:14.122Z,12.40
2022-09-29T00:28:47.308Z,12.38
2022-09-29T00:31:16.065Z,12.37
2022-09-29T00:33:43.322Z,12.33
2022-09-29T00:36:14.490Z,12.34
2022-09-29T00:38:44.553Z,12.36
2022-09-29T00:41:24.501Z,12.29
2022-09-29T00:43:54.281Z,12.28
2022-09-29T00:46:51.399Z,12.27
2022-09-29T00:49:30.354Z,12.21
2022-09-29T00:52:04.789Z,12.19
2022-09-29T00:55:07.418Z,12.19
2022-09-29T00:57:54.978Z,12.17
2022-09-29T01:00:23.038Z,12.23
2022-09-29T01:03:01.542Z,12.13
2022-09-29T01:05:56.582Z,12.10
2022-09-29T01:08:42.827Z,12.04
2022-09-29T01:11:13.221Z,12.09
2022-09-29T01:13:41.861Z,12.03
2022-09-29T01:16:09.208Z,11.98
2022-09-29T01:18:38.009Z,11.95
2022-09-29T01:21:39.914Z,11.90
2022-09-29T01:24:28.955Z,11.90
2022-09-29T01:27:11.647Z,11.83
2022-09-29T01:29:53.943Z,11.88
2022-09-29T01:32:58.349Z,11.81
2022-09-29T01:35:49.007Z,11.76
2022-09-29T01:38:46.893Z,11.76
2022-09-29T01:41:34.341Z,11.77
2022-09-29T01:44:12.679Z,11.77
2022-09-29T01:47:14.572Z,11.75
2022-09-29T01:49:48.989Z,11.80
2022-09-29T01:52:27.201Z,11.77
2022-09-29T01:55:08.295Z,11.79
2022-09-29T01:57:54.859Z,11.75
2022-09-29T02:00:24.118Z,11.83
2022-09-29T02:03:06.694Z,11.83
2022-09-29T02:05:38.999Z,11.81
2022-09-29T02:08:21.167Z,11.79
2022-09-29T02:11:00.826Z,11.83
2022-09-29T02:13:35.866Z,11.85
2022-09-29T02:16:09.472Z,11.83
2022-09-29T02:18:49.483Z,11.81
2022-09-29T02:21:16.853Z,11.79
2022-09-29T02:23:44.353Z,11.73
2022-09-29T02:26:13.215Z,11.76
2022-09-29T02:28:42.765Z,11.79
2022-09-29T02:31:10.590Z,11.82
2022-09-29T02:33:37.794Z,11.89
2022-09-29T02:36:43.015Z,11.83
2022-09-29T02:39:35.615Z,11.85
2022-09-29T02:42:15.229Z,11.84
2022-09-29T02:45:21.364Z,11.77
2022-09-29T02:48:49.393Z,11.78
2022-09-29T02:51:27.858Z,11.83
2022-09-29T02:54:27.080Z,11.87
2022-09-29T02:57:31.929Z,11.90
2022-09-29T03:00:11.454Z,11.96
2022-09-29T03:02:43.003Z,12.00
2022-09-29T03:05:14.352Z,12.04
2022-09-29T03:07:42.279Z,12.10
2022-09-29T03:10:11.457Z,12.13
2022-09-29T03:12:39.003Z,12.14
2022-09-29T03:15:08.121Z,12.13
2022-09-29T03:17:36.138Z,12.06
2022-09-29T03:20:04.195Z,12.04
2022-09-29T03:22:31.899Z,12.07
2022-09-29T03:24:59.053Z,12.07
2022-09-29T03:27:26.223Z,12.08
2022-09-29T03:29:53.606Z,12.03
2022-09-29T03:32:20.829Z,12.00
2022-09-29T03:34:48.135Z,11.94
2022-09-29T03:37:15.748Z,11.97
2022-09-29T03:39:42.959Z,12.00
2022-09-29T03:42:10.117Z,11.99
2022-09-29T03:44:37.633Z,12.02
2022-09-29T03:47:04.933Z,12.02
2022-09-29T03:49:32.221Z,12.02
2022-09-29T03:51:59.705Z,12.00
2022-09-29T03:54:28.192Z,11.97
2022-09-29T03:56:55.387Z,11.93
2022-09-29T03:59:22.919Z,11.87
2022-09-29T04:01:50.297Z,11.92
2022-09-29T04:04:17.535Z,11.91
2022-09-29T04:06:44.955Z,11.93
2022-09-29T04:09:12.171Z,11.96
2022-09-29T04:11:39.593Z,12.01
2022-09-29T04:14:07.084Z,12.01
2022-09-29T04:16:34.859Z,12.03
2022-09-29T04:19:02.483Z,12.06
2022-09-29T04:21:29.823Z,12.05
2022-09-29T04:23:57.068Z,12.09
2022-09-29T04:26:24.245Z,12.06
2022-09-29T04:28:51.611Z,12.06
2022-09-29T04:31:18.857Z,12.01
2022-09-29T04:33:46.239Z,12.01
2022-09-29T04:36:13.594Z,12.05
2022-09-29T04:38:40.941Z,12.08
2022-09-29T04:41:08.288Z,12.11
2022-09-29T04:43:35.673Z,12.15
2022-09-29T04:46:06.482Z,12.20
2022-09-29T04:48:36.378Z,12.25
2022-09-29T04:51:05.824Z,12.28
2022-09-29T04:53:33.206Z,12.31
2022-09-29T04:56:05.373Z,12.32
2022-09-29T04:58:32.757Z,12.36
2022-09-29T05:01:13.902Z,12.41
2022-09-29T05:03:42.291Z,12.46
2022-09-29T05:06:10.270Z,12.47
2022-09-29T05:08:37.593Z,12.40
2022-09-29T05:11:10.017Z,12.31
2022-09-29T05:13:38.399Z,12.28
2022-09-29T05:16:06.208Z,12.27
2022-09-29T05:18:34.003Z,12.28
2022-09-29T05:21:28.974Z,12.28
2022-09-29T05:23:57.137Z,12.28
2022-09-29T05:26:24.986Z,12.25
2022-09-29T05:28:52.212Z,12.21
2022-09-29T05:31:19.835Z,12.21
2022-09-29T05:33:47.235Z,12.25
2022-09-29T05:36:14.821Z,12.29
2022-09-29T05:38:42.240Z,12.39
2022-09-29T05:41:13.336Z,12.51
2022-09-29T05:43:40.940Z,12.49
2022-09-29T05:46:10.870Z,12.61
2022-09-29T05:48:38.638Z,12.73
2022-09-29T05:51:12.958Z,12.88
2022-09-29T05:53:41.468Z,12.99
2022-09-29T05:56:19.642Z,13.03
2022-09-29T05:58:47.192Z,13.07
2022-09-29T06:01:21.838Z,13.02
2022-09-29T06:03:51.169Z,13.02
2022-09-29T06:06:25.893Z,12.96
2022-09-29T06:08:54.992Z,12.92
2022-09-29T06:11:27.619Z,12.87
2022-09-29T06:13:56.235Z,12.85
2022-09-29T06:16:29.425Z,12.87
2022-09-29T06:18:56.927Z,12.87
2022-09-29T06:21:27.434Z,12.91
2022-09-29T06:23:56.882Z,12.90
2022-09-29T06:26:26.433Z,12.96
2022-09-29T06:28:55.236Z,13.03
2022-09-29T06:31:26.547Z,13.10
2022-09-29T06:33:59.028Z,13.24
2022-09-29T06:37:03.260Z,13.45
2022-09-29T06:39:31.446Z,13.74
2022-09-29T06:41:58.785Z,14.02
2022-09-29T06:44:28.497Z,14.32
2022-09-29T06:46:57.556Z,14.55
2022-09-29T06:49:25.942Z,14.60
2022-09-29T06:51:53.227Z,14.50
2022-09-29T06:54:25.275Z,14.44
2022-09-29T06:56:55.350Z,14.39
2022-09-29T06:59:23.293Z,14.38
2022-09-29T07:01:51.476Z,14.49
2022-09-29T07:04:21.560Z,14.64
2022-09-29T07:06:50.340Z,14.84
2022-09-29T07:09:18.377Z,15.08
2022-09-29T07:11:51.688Z,15.25
2022-09-29T07:14:24.218Z,15.63
2022-09-29T07:16:52.751Z,15.95
2022-09-29T07:19:20.915Z,16.15
2022-09-29T07:21:48.694Z,16.05
2022-09-29T07:24:17.132Z,16.05
2022-09-29T07:26:44.734Z,15.96
2022-09-29T07:29:15.564Z,15.73
2022-09-29T07:31:52.700Z,15.56
2022-09-29T07:34:22.008Z,15.51
2022-09-29T07:36:50.030Z,15.44
2022-09-29T07:39:19.760Z,15.38
2022-09-29T07:41:47.076Z,15.32
2022-09-29T07:44:14.552Z,15.35
2022-09-29T07:46:42.882Z,15.32
2022-09-29T07:49:10.250Z,15.31
2022-09-29T07:51:37.946Z,15.33
2022-09-29T07:54:05.949Z,15.36
2022-09-29T07:56:33.465Z,15.50
2022-09-29T07:59:02.509Z,15.60
2022-09-29T08:01:30.274Z,15.73
2022-09-29T08:03:58.394Z,15.93
2022-09-29T08:06:27.123Z,16.09
2022-09-29T08:09:03.686Z,16.27
2022-09-29T08:11:36.924Z,16.54
2022-09-29T08:14:04.461Z,16.78
2022-09-29T08:16:32.684Z,17.22
2022-09-29T08:19:01.645Z,17.15
2022-09-29T08:21:31.639Z,16.92
2022-09-29T08:23:58.876Z,16.94
2022-09-29T08:26:39.890Z,16.95
2022-09-29T08:29:15.691Z,16.85
2022-09-29T08:31:44.673Z,16.88
2022-09-29T08:34:13.629Z,16.87
2022-09-29T08:36:41.685Z,16.89
2022-09-29T08:39:11.790Z,17.09
2022-09-29T08:41:57.348Z,17.24
2022-09-29T08:44:39.527Z,17.54
2022-09-29T08:47:42.020Z,17.88
2022-09-29T08:50:31.626Z,18.15
2022-09-29T08:53:22.088Z,18.79
2022-09-29T08:56:02.399Z,19.46
2022-09-29T08:58:31.177Z,19.70
2022-09-29T09:01:23.219Z,21.80
2022-09-29T09:04:21.647Z,26.30
2022-09-29T09:07:33.025Z,31.45
2022-09-29T09:10:21.074Z,36.75
2022-09-29T09:13:26.974Z,40.10
2022-09-29T09:16:19.013Z,37.43
2022-09-29T09:19:10.688Z,43.69
2022-09-29T09:21:51.535Z,44.51
2022-09-29T09:24:37.098Z,45.86
2022-09-29T09:27:04.995Z,49.28
2022-09-29T09:29:44.268Z,50.88
2022-09-29T09:32:29.029Z,52.74
2022-09-29T09:35:21.767Z,54.18
2022-09-29T09:37:55.299Z,54.34
2022-09-29T09:40:34.112Z,54.03
2022-09-29T09:43:11.544Z,50.65
2022-09-29T09:46:22.982Z,46.15
2022-09-29T09:49:06.885Z,51.63
2022-09-29T09:51:48.085Z,54.06
2022-09-29T09:54:38.973Z,51.17
2022-09-29T09:57:37.732Z,44.26
2022-09-29T10:00:09.118Z,42.31
2022-09-29T10:02:44.003Z,48.18
2022-09-29T10:05:15.214Z,52.81
2022-09-29T10:07:44.519Z,52.53
2022-09-29T10:10:22.334Z,50.10
2022-09-29T10:13:08.878Z,54.13
2022-09-29T10:15:48.885Z,56.04
2022-09-29T10:18:46.458Z,55.20
2022-09-29T10:21:29.706Z,57.10
2022-09-29T10:23:59.828Z,56.79
2022-09-29T10:26:46.791Z,54.45
2022-09-29T10:29:33.452Z,48.46
2022-09-29T10:32:09.488Z,49.08
2022-09-29T10:34:41.761Z,42.81
2022-09-29T10:37:25.076Z,43.98
2022-09-29T10:40:08.309Z,43.06
2022-09-29T10:42:46.277Z,39.37
2022-09-29T10:45:24.143Z,37.40
2022-09-29T10:48:04.346Z,36.16
2022-09-29T10:50:47.786Z,44.09
2022-09-29T10:53:43.681Z,49.08
2022-09-29T10:56:25.346Z,52.45
2022-09-29T10:59:05.655Z,53.49
2022-09-29T11:01:47.867Z,54.91
2022-09-29T11:04:31.346Z,54.47
2022-09-29T11:07:12.552Z,55.79
2022-09-29T11:09:44.690Z,56.31
2022-09-29T11:12:39.672Z,57.00
2022-09-29T11:15:28.685Z,56.96
2022-09-29T11:17:57.265Z,57.64
2022-09-29T11:20:35.299Z,58.31
2022-09-29T11:23:24.568Z,57.94
2022-09-29T11:26:05.666Z,58.12
2022-09-29T11:28:51.224Z,57.94
2022-09-29T11:31:39.903Z,59.08
2022-09-29T11:34:40.920Z,50.55
2022-09-29T11:37:39.638Z,44.39
2022-09-29T11:40:37.049Z,43.96
2022-09-29T11:43:42.502Z,49.32
2022-09-29T11:46:40.090Z,51.74
2022-09-29T11:49:50.647Z,48.80
2022-09-29T11:52:48.603Z,47.21
2022-09-29T11:55:52.011Z,48.42
2022-09-29T11:58:37.281Z,46.18
2022-09-29T12:01:52.589Z,42.99
2022-09-29T12:05:05.704Z,40.08
2022-09-29T12:08:22.995Z,37.41
2022-09-29T12:11:23.826Z,36.36
2022-09-29T12:14:18.379Z,37.15
2022-09-29T12:16:57.562Z,37.68
2022-09-29T12:19:31.940Z,41.76
2022-09-29T12:22:03.885Z,45.31
2022-09-29T12:24:49.143Z,47.63
2022-09-29T12:27:39.701Z,43.80
2022-09-29T12:30:29.950Z,42.71
2022-09-29T12:33:14.745Z,45.98
2022-09-29T12:37:02.312Z,43.59
2022-09-29T12:39:50.314Z,43.48
2022-09-29T12:42:44.317Z,40.37
2022-09-29T12:45:34.943Z,38.93
2022-09-29T12:48:27.713Z,39.39
2022-09-29T12:51:33.443Z,41.32
2022-09-29T12:54:12.463Z,38.11
2022-09-29T12:57:11.616Z,40.12
2022-09-29T12:59:56.823Z,44.80
2022-09-29T13:02:45.773Z,45.97
2022-09-29T13:05:21.743Z,47.90
2022-09-29T13:08:06.353Z,47.39
2022-09-29T13:11:20.092Z,48.49
2022-09-29T13:14:12.600Z,49.82
2022-09-29T13:17:20.959Z,50.13
2022-09-29T13:20:24.504Z,50.74
2022-09-29T13:23:00.442Z,50.37
2022-09-29T13:25:51.333Z,49.93
2022-09-29T13:28:57.866Z,49.49
2022-09-29T13:31:33.588Z,49.34
2022-09-29T13:34:03.405Z,49.55
2022-09-29T13:36:38.714Z,49.67
2022-09-29T13:39:21.767Z,46.38
2022-09-29T13:41:54.154Z,42.64
2022-09-29T13:44:25.835Z,39.77
2022-09-29T13:46:56.209Z,37.07
2022-09-29T13:49:30.243Z,35.25
2022-09-29T13:52:28.327Z,35.66
2022-09-29T13:54:55.507Z,34.72
2022-09-29T13:57:27.532Z,33.72
2022-09-29T13:59:55.638Z,32.67
2022-09-29T14:02:47.245Z,31.32
2022-09-29T14:05:23.703Z,30.28
2022-09-29T14:07:57.550Z,29.57
2022-09-29T14:10:36.659Z,28.98
2022-09-29T14:13:24.626Z,27.93
2022-09-29T14:16:12.971Z,27.41
2022-09-29T14:18:55.218Z,27.15
2022-09-29T14:21:57.445Z,26.33
2022-09-29T14:24:42.400Z,25.85
2022-09-29T14:28:09.594Z,24.91
2022-09-29T14:30:51.373Z,24.46
2022-09-29T14:33:35.662Z,23.66
2022-09-29T14:36:10.431Z,23.27
2022-09-29T14:39:24.504Z,22.51
2022-09-29T14:41:49.502Z,22.21
2022-09-29T14:44:56.198Z,21.83
2022-09-29T14:47:53.117Z,21.67
2022-09-29T14:51:18.670Z,21.32
2022-09-29T14:54:26.921Z,20.99
2022-09-29T14:57:20.017Z,20.85
2022-09-29T15:00:12.990Z,20.79
2022-09-29T15:02:52.322Z,20.45
2022-09-29T15:05:34.661Z,20.40
2022-09-29T15:08:21.272Z,20.54
2022-09-29T15:10:48.482Z,20.27
2022-09-29T15:13:30.256Z,20.19
2022-09-29T15:16:17.725Z,20.03
2022-09-29T15:19:18.542Z,20.01
2022-09-29T15:22:22.741Z,19.78
2022-09-29T15:25:31.284Z,19.73
2022-09-29T15:28:25.603Z,19.60
2022-09-29T15:30:54.851Z,19.48
2022-09-29T15:33:28.147Z,19.21
2022-09-29T15:36:05.261Z,18.97
2022-09-29T15:38:40.055Z,18.80
2022-09-29T15:41:10.967Z,18.68
2022-09-29T15:44:12.176Z,18.40
2022-09-29T15:46:48.898Z,18.28
2022-09-29T15:49:23.671Z,18.15
2022-09-29T15:52:05.417Z,18.01
2022-09-29T15:54:44.906Z,17.84
2022-09-29T15:57:51.156Z,17.75
2022-09-29T16:00:21.377Z,17.54
2022-09-29T16:03:11.095Z,17.28
2022-09-29T16:05:52.786Z,17.07
2022-09-29T16:08:25.277Z,16.88
2022-09-29T16:11:00.279Z,16.69
2022-09-29T16:13:33.287Z,16.35
2022-09-29T16:16:11.195Z,16.27
2022-09-29T16:18:45.677Z,16.11
2022-09-29T16:21:20.804Z,16.00
2022-09-29T16:24:07.877Z,15.87
2022-09-29T16:26:40.762Z,15.73
2022-09-29T16:29:11.099Z,15.61
2022-09-29T16:31:42.084Z,15.55
2022-09-29T16:34:21.638Z,15.29
2022-09-29T16:37:14.719Z,15.14
2022-09-29T16:39:46.860Z,15.02
2022-09-29T16:42:31.973Z,14.92
2022-09-29T16:45:00.543Z,14.89
2022-09-29T16:47:33.064Z,14.64
2022-09-29T16:50:14.475Z,14.47
2022-09-29T16:52:47.867Z,14.42
2022-09-29T16:55:28.001Z,14.36
2022-09-29T16:58:15.225Z,14.25
2022-09-29T17:00:47.002Z,14.14
2022-09-29T17:03:15.107Z,14.12
2022-09-29T17:05:48.711Z,13.98
2022-09-29T17:08:26.640Z,13.83
2022-09-29T17:10:57.190Z,13.76
2022-09-29T17:13:34.487Z,13.75
2022-09-29T17:16:02.565Z,13.59
2022-09-29T17:18:30.549Z,13.49
2022-09-29T17:20:57.736Z,13.46
2022-09-29T17:23:24.939Z,13.29
2022-09-29T17:25:52.440Z,13.24
2022-09-29T17:28:27.126Z,13.24
2022-09-29T17:30:55.760Z,13.27
2022-09-29T17:33:23.835Z,13.24
2022-09-29T17:35:55.922Z,13.29
2022-09-29T17:38:24.284Z,13.14
2022-09-29T17:41:02.661Z,12.99
2022-09-29T17:43:31.684Z,13.06
2022-09-29T17:46:01.224Z,13.06
2022-09-29T17:48:30.696Z,13.06
2022-09-29T17:50:59.569Z,13.02
2022-09-29T17:53:27.260Z,13.05
2022-09-29T17:55:57.911Z,12.94
2022-09-29T17:58:25.729Z,12.85
2022-09-29T18:00:57.512Z,12.78
2022-09-29T18:03:25.552Z,12.68
2022-09-29T18:05:56.861Z,12.71
2022-09-29T18:08:28.033Z,12.65
2022-09-29T18:10:59.925Z,12.51
2022-09-29T18:13:31.515Z,12.46
2022-09-29T18:16:01.432Z,12.40
2022-09-29T18:18:28.824Z,12.43
2022-09-29T18:20:56.343Z,12.31
2022-09-29T18:23:24.297Z,12.22
2022-09-29T18:25:53.145Z,12.19
2022-09-29T18:28:20.745Z,12.21
2022-09-29T18:30:54.018Z,12.10
2022-09-29T18:33:21.550Z,12.20
2022-09-29T18:35:54.963Z,12.20
2022-09-29T18:38:23.497Z,12.26
2022-09-29T18:40:55.609Z,12.19
2022-09-29T18:43:25.621Z,12.17
2022-09-29T18:45:55.732Z,12.09
2022-09-29T18:48:23.186Z,11.97
2022-09-29T18:50:52.831Z,11.86
2022-09-29T18:53:22.137Z,11.85
2022-09-29T18:55:56.542Z,11.79
2022-09-29T18:58:24.234Z,11.82
2022-09-29T19:00:55.471Z,11.72
2022-09-29T19:03:27.157Z,11.74
2022-09-29T19:05:55.766Z,11.69
2022-09-29T19:08:23.550Z,11.62
2022-09-29T19:11:00.741Z,11.56
2022-09-29T19:13:31.292Z,11.57
2022-09-29T19:16:03.958Z,11.58
2022-09-29T19:18:31.693Z,11.49
2022-09-29T19:21:00.709Z,11.48
2022-09-29T19:23:28.521Z,11.32
2022-09-29T19:25:58.589Z,11.38
2022-09-29T19:28:27.397Z,11.30
2022-09-29T19:31:03.398Z,11.34
2022-09-29T19:33:30.974Z,11.32
2022-09-29T19:36:04.920Z,11.29
2022-09-29T19:38:32.674Z,11.23
2022-09-29T19:41:00.740Z,11.21
2022-09-29T19:43:28.001Z,11.19
2022-09-29T19:45:55.481Z,11.20
2022-09-29T19:48:24.107Z,11.24
2022-09-29T19:51:17.453Z,11.16
2022-09-29T19:53:48.681Z,11.14
2022-09-29T19:56:18.130Z,11.16
2022-09-29T19:58:45.604Z,11.18
2022-09-29T20:01:13.061Z,11.06
2022-09-29T20:03:40.497Z,11.04
2022-09-29T20:06:09.141Z,11.07
2022-09-29T20:08:36.413Z,11.06
2022-09-29T20:11:12.228Z,10.99
2022-09-29T20:13:41.239Z,10.96
2022-09-29T20:16:08.643Z,10.96
2022-09-29T20:18:37.938Z,10.91
2022-09-29T20:21:12.828Z,10.84
2022-09-29T20:23:40.057Z,10.85
2022-09-29T20:26:10.823Z,10.82
2022-09-29T20:28:38.881Z,10.72
2022-09-29T20:31:07.836Z,10.71
2022-09-29T20:33:36.685Z,10.79
2022-09-29T20:36:05.693Z,10.85
2022-09-29T20:38:39.208Z,10.83
2022-09-29T20:41:08.080Z,10.72
2022-09-29T20:43:35.993Z,10.62
2022-09-29T20:46:08.014Z,10.64
2022-09-29T20:48:37.826Z,10.67
2022-09-29T20:51:08.638Z,10.76
2022-09-29T20:53:40.663Z,10.84
2022-09-29T20:56:16.366Z,10.70
2022-09-29T20:58:47.085Z,10.66
2022-09-29T21:01:22.918Z,10.75
2022-09-29T21:04:05.461Z,10.81
2022-09-29T21:06:36.350Z,10.77
2022-09-29T21:09:06.825Z,10.71
2022-09-29T21:11:40.109Z,10.78
2022-09-29T21:14:18.586Z,10.87
2022-09-29T21:16:58.398Z,10.97
2022-09-29T21:19:28.415Z,10.99
2022-09-29T21:21:56.930Z,11.03
2022-09-29T21:24:24.680Z,11.03
2022-09-29T21:26:52.142Z,11.00
2022-09-29T21:29:20.354Z,11.03
2022-09-29T21:31:47.761Z,11.04
2022-09-29T21:34:15.749Z,11.00
2022-09-29T21:36:43.501Z,10.99
2022-09-29T21:39:11.080Z,11.00
2022-09-29T21:41:42.204Z,11.01
2022-09-29T21:44:24.150Z,10.98
2022-09-29T21:46:52.230Z,11.00
2022-09-29T21:49:20.684Z,10.98
2022-09-29T21:51:50.703Z,10.99
2022-09-29T21:54:22.315Z,11.01
2022-09-29T21:56:51.599Z,10.99
2022-09-29T21:59:21.671Z,11.01
2022-09-29T22:01:50.767Z,10.97
2022-09-29T22:04:18.584Z,10.91
2022-09-29T22:06:45.900Z,10.89
2022-09-29T22:09:18.508Z,10.75
2022-09-29T22:11:46.856Z,10.57
2022-09-29T22:14:16.049Z,10.47
2022-09-29T22:16:43.960Z,10.47
2022-09-29T22:19:28.182Z,10.35
2022-09-29T22:21:56.069Z,10.37
2022-09-29T22:24:26.702Z,10.35
2022-09-29T22:26:55.060Z,10.28
2022-09-29T22:29:22.637Z,10.23
2022-09-29T22:31:50.706Z,10.23
2022-09-29T22:34:17.988Z,10.07
2022-09-29T22:36:45.210Z,10.10
2022-09-29T22:39:12.677Z,10.05
2022-09-29T22:41:40.247Z,10.00
2022-09-29T22:44:08.158Z,9.90
2022-09-29T22:46:36.337Z,9.87
2022-09-29T22:49:04.327Z,9.78
2022-09-29T22:51:32.229Z,9.72
2022-09-29T22:53:59.769Z,9.73
2022-09-29T22:56:30.249Z,9.75
2022-09-29T22:59:04.463Z,9.68
2022-09-29T23:01:33.683Z,9.58
2022-09-29T23:04:01.483Z,9.53
2022-09-29T23:06:28.762Z,9.52
2022-09-29T23:08:56.162Z,9.49
2022-09-29T23:11:24.023Z,9.44
2022-09-29T23:13:56.660Z,9.47
2022-09-29T23:16:24.632Z,9.54
2022-09-29T23:18:55.310Z,9.54
2022-09-29T23:21:24.370Z,9.54
2022-09-29T23:24:01.407Z,9.40
2022-09-29T23:26:31.105Z,9.39
2022-09-29T23:29:00.121Z,9.36
2022-09-29T23:31:28.231Z,9.34
2022-09-29T23:34:00.272Z,9.39
2022-09-29T23:36:31.299Z,9.42
2022-09-29T23:39:10.804Z,9.38
2022-09-29T23:41:58.118Z,9.39
2022-09-29T23:44:29.051Z,9.43
2022-09-29T23:46:57.252Z,9.43
2022-09-29T23:49:28.923Z,9.42
2022-09-29T23:52:00.820Z,9.42
2022-09-29T23:54:29.715Z,9.58
2022-09-29T23:56:58.394Z,9.62
2022-09-29T23:59:26.386Z,9.62
